sensor_id;sensor_type;location;lat;lon;timestamp;temperature;humidity
6443;DHT22;3254;47.372;8.512;2023-11-18T00:00:23;4.50;62.60
6443;DHT22;3254;47.372;8.512;2023-11-18T00:02:49;4.50;63.70
6443;DHT22;3254;47.372;8.512;2023-11-18T00:05:15;4.50;63.40
6443;DHT22;3254;47.372;8.512;2023-11-18T00:07:41;4.50;61.90
6443;DHT22;3254;47.372;8.512;2023-11-18T00:10:08;4.40;61.60
6443;DHT22;3254;47.372;8.512;2023-11-18T00:12:37;4.40;63.00
6443;DHT22;3254;47.372;8.512;2023-11-18T00:15:07;4.40;69.50
6443;DHT22;3254;47.372;8.512;2023-11-18T00:17:34;4.30;75.40
6443;DHT22;3254;47.372;8.512;2023-11-18T00:20:00;4.30;80.30
6443;DHT22;3254;47.372;8.512;2023-11-18T00:22:28;4.30;85.80
6443;DHT22;3254;47.372;8.512;2023-11-18T00:24:53;4.30;90.50
6443;DHT22;3254;47.372;8.512;2023-11-18T00:27:20;4.40;89.40
6443;DHT22;3254;47.372;8.512;2023-11-18T00:29:48;4.50;83.30
6443;DHT22;3254;47.372;8.512;2023-11-18T00:32:13;4.50;78.80
6443;DHT22;3254;47.372;8.512;2023-11-18T00:34:39;4.60;67.50
6443;DHT22;3254;47.372;8.512;2023-11-18T00:37:05;4.70;60.50
6443;DHT22;3254;47.372;8.512;2023-11-18T00:39:30;4.70;61.90
6443;DHT22;3254;47.372;8.512;2023-11-18T00:41:56;4.60;63.10
6443;DHT22;3254;47.372;8.512;2023-11-18T00:44:22;4.60;63.30
6443;DHT22;3254;47.372;8.512;2023-11-18T00:46:47;4.60;67.20
6443;DHT22;3254;47.372;8.512;2023-11-18T00:49:13;4.60;66.80
6443;DHT22;3254;47.372;8.512;2023-11-18T00:51:39;4.80;62.60
6443;DHT22;3254;47.372;8.512;2023-11-18T00:54:05;4.80;57.00
6443;DHT22;3254;47.372;8.512;2023-11-18T00:56:35;4.90;51.10
6443;DHT22;3254;47.372;8.512;2023-11-18T00:59:00;4.90;49.10
6443;DHT22;3254;47.372;8.512;2023-11-18T01:01:29;4.80;47.70
6443;DHT22;3254;47.372;8.512;2023-11-18T01:03:54;4.80;48.60
6443;DHT22;3254;47.372;8.512;2023-11-18T01:06:20;4.80;45.70
6443;DHT22;3254;47.372;8.512;2023-11-18T01:08:47;4.80;41.70
6443;DHT22;3254;47.372;8.512;2023-11-18T01:11:18;4.70;44.90
6443;DHT22;3254;47.372;8.512;2023-11-18T01:13:48;4.50;44.00
6443;DHT22;3254;47.372;8.512;2023-11-18T01:16:14;4.30;44.50
6443;DHT22;3254;47.372;8.512;2023-11-18T01:18:40;4.10;48.60
6443;DHT22;3254;47.372;8.512;2023-11-18T01:21:06;4.00;52.60
6443;DHT22;3254;47.372;8.512;2023-11-18T01:23:36;3.90;56.00
6443;DHT22;3254;47.372;8.512;2023-11-18T01:26:03;3.80;58.70
6443;DHT22;3254;47.372;8.512;2023-11-18T01:28:34;3.80;63.30
6443;DHT22;3254;47.372;8.512;2023-11-18T01:31:06;3.80;68.80
6443;DHT22;3254;47.372;8.512;2023-11-18T01:33:39;3.80;73.80
6443;DHT22;3254;47.372;8.512;2023-11-18T01:36:06;3.80;75.60
6443;DHT22;3254;47.372;8.512;2023-11-18T01:38:34;3.80;77.60
6443;DHT22;3254;47.372;8.512;2023-11-18T01:40:59;3.90;81.50
6443;DHT22;3254;47.372;8.512;2023-11-18T01:43:26;3.90;83.00
6443;DHT22;3254;47.372;8.512;2023-11-18T01:45:51;3.90;85.50
6443;DHT22;3254;47.372;8.512;2023-11-18T01:48:22;4.00;90.00
6443;DHT22;3254;47.372;8.512;2023-11-18T01:50:48;4.00;88.40
6443;DHT22;3254;47.372;8.512;2023-11-18T01:53:14;3.90;84.10
6443;DHT22;3254;47.372;8.512;2023-11-18T01:55:41;3.70;86.20
6443;DHT22;3254;47.372;8.512;2023-11-18T01:58:07;3.80;92.80
6443;DHT22;3254;47.372;8.512;2023-11-18T02:00:37;3.70;94.10
6443;DHT22;3254;47.372;8.512;2023-11-18T02:03:05;3.80;95.90
6443;DHT22;3254;47.372;8.512;2023-11-18T02:05:31;3.70;94.90
6443;DHT22;3254;47.372;8.512;2023-11-18T02:08:01;3.60;94.10
6443;DHT22;3254;47.372;8.512;2023-11-18T02:10:31;3.60;95.40
6443;DHT22;3254;47.372;8.512;2023-11-18T02:13:14;3.50;94.30
6443;DHT22;3254;47.372;8.512;2023-11-18T02:15:44;3.40;96.00
6443;DHT22;3254;47.372;8.512;2023-11-18T02:18:11;3.40;95.80
6443;DHT22;3254;47.372;8.512;2023-11-18T02:20:39;3.40;95.60
6443;DHT22;3254;47.372;8.512;2023-11-18T02:23:05;3.40;95.90
6443;DHT22;3254;47.372;8.512;2023-11-18T02:25:33;3.50;94.50
6443;DHT22;3254;47.372;8.512;2023-11-18T02:27:59;3.40;93.50
6443;DHT22;3254;47.372;8.512;2023-11-18T02:30:25;3.40;93.40
6443;DHT22;3254;47.372;8.512;2023-11-18T02:33:11;3.40;93.60
6443;DHT22;3254;47.372;8.512;2023-11-18T02:36:10;3.40;92.20
6443;DHT22;3254;47.372;8.512;2023-11-18T02:38:46;3.30;91.90
6443;DHT22;3254;47.372;8.512;2023-11-18T02:41:13;3.40;91.60
6443;DHT22;3254;47.372;8.512;2023-11-18T02:43:39;3.30;90.90
6443;DHT22;3254;47.372;8.512;2023-11-18T02:46:07;3.20;91.00
6443;DHT22;3254;47.372;8.512;2023-11-18T02:48:34;3.10;91.90
6443;DHT22;3254;47.372;8.512;2023-11-18T02:51:01;2.90;92.00
6443;DHT22;3254;47.372;8.512;2023-11-18T02:53:27;2.90;96.80
6443;DHT22;3254;47.372;8.512;2023-11-18T02:55:52;2.90;98.80
6443;DHT22;3254;47.372;8.512;2023-11-18T02:58:19;2.80;98.60
6443;DHT22;3254;47.372;8.512;2023-11-18T03:00:45;2.60;98.20
6443;DHT22;3254;47.372;8.512;2023-11-18T03:03:11;2.70;99.90
6443;DHT22;3254;47.372;8.512;2023-11-18T03:05:37;2.60;99.90
6443;DHT22;3254;47.372;8.512;2023-11-18T03:08:03;2.60;99.90
6443;DHT22;3254;47.372;8.512;2023-11-18T03:10:31;2.70;99.90
6443;DHT22;3254;47.372;8.512;2023-11-18T03:13:00;2.70;99.90
6443;DHT22;3254;47.372;8.512;2023-11-18T03:15:27;2.60;99.90
6443;DHT22;3254;47.372;8.512;2023-11-18T03:17:54;2.60;99.90
6443;DHT22;3254;47.372;8.512;2023-11-18T03:20:21;2.50;99.90
6443;DHT22;3254;47.372;8.512;2023-11-18T03:22:49;2.30;99.90
6443;DHT22;3254;47.372;8.512;2023-11-18T03:25:16;2.20;99.90
6443;DHT22;3254;47.372;8.512;2023-11-18T03:27:42;2.10;99.90
6443;DHT22;3254;47.372;8.512;2023-11-18T03:30:09;2.10;99.90
6443;DHT22;3254;47.372;8.512;2023-11-18T03:32:39;2.00;99.90
6443;DHT22;3254;47.372;8.512;2023-11-18T03:35:07;2.00;99.90
6443;DHT22;3254;47.372;8.512;2023-11-18T03:37:36;2.00;99.90
6443;DHT22;3254;47.372;8.512;2023-11-18T03:40:10;1.90;99.90
6443;DHT22;3254;47.372;8.512;2023-11-18T03:42:37;2.10;99.90
6443;DHT22;3254;47.372;8.512;2023-11-18T03:45:03;2.10;99.90
6443;DHT22;3254;47.372;8.512;2023-11-18T03:47:29;2.00;99.90
6443;DHT22;3254;47.372;8.512;2023-11-18T03:49:56;2.00;99.90
6443;DHT22;3254;47.372;8.512;2023-11-18T03:52:22;2.00;99.90
6443;DHT22;3254;47.372;8.512;2023-11-18T03:54:47;2.00;99.90
6443;DHT22;3254;47.372;8.512;2023-11-18T03:57:13;1.90;99.90
6443;DHT22;3254;47.372;8.512;2023-11-18T03:59:39;1.90;99.90
6443;DHT22;3254;47.372;8.512;2023-11-18T04:02:06;1.90;99.90
6443;DHT22;3254;47.372;8.512;2023-11-18T04:04:32;2.00;99.90
6443;DHT22;3254;47.372;8.512;2023-11-18T04:06:57;2.00;99.90
6443;DHT22;3254;47.372;8.512;2023-11-18T04:09:23;1.90;99.90
6443;DHT22;3254;47.372;8.512;2023-11-18T04:11:48;1.70;99.90
6443;DHT22;3254;47.372;8.512;2023-11-18T04:14:14;1.80;99.90
6443;DHT22;3254;47.372;8.512;2023-11-18T04:16:40;2.00;99.90
6443;DHT22;3254;47.372;8.512;2023-11-18T04:19:05;2.00;99.90
6443;DHT22;3254;47.372;8.512;2023-11-18T04:21:31;1.90;99.90
6443;DHT22;3254;47.372;8.512;2023-11-18T04:23:57;2.00;99.90
6443;DHT22;3254;47.372;8.512;2023-11-18T04:26:23;1.80;99.90
6443;DHT22;3254;47.372;8.512;2023-11-18T04:28:50;1.80;99.90
6443;DHT22;3254;47.372;8.512;2023-11-18T04:31:15;1.60;99.90
6443;DHT22;3254;47.372;8.512;2023-11-18T04:33:41;1.60;99.90
6443;DHT22;3254;47.372;8.512;2023-11-18T04:36:07;1.70;99.90
6443;DHT22;3254;47.372;8.512;2023-11-18T04:38:35;1.60;99.90
6443;DHT22;3254;47.372;8.512;2023-11-18T04:41:01;1.70;99.90
6443;DHT22;3254;47.372;8.512;2023-11-18T04:43:30;1.70;99.90
6443;DHT22;3254;47.372;8.512;2023-11-18T04:45:56;1.60;99.90
6443;DHT22;3254;47.372;8.512;2023-11-18T04:48:22;1.60;99.90
6443;DHT22;3254;47.372;8.512;2023-11-18T04:50:48;1.60;99.90
6443;DHT22;3254;47.372;8.512;2023-11-18T04:53:13;1.60;99.90
6443;DHT22;3254;47.372;8.512;2023-11-18T04:55:39;1.50;99.90
6443;DHT22;3254;47.372;8.512;2023-11-18T04:58:05;1.60;99.90
6443;DHT22;3254;47.372;8.512;2023-11-18T05:00:35;1.60;99.90
6443;DHT22;3254;47.372;8.512;2023-11-18T05:03:02;1.60;99.90
6443;DHT22;3254;47.372;8.512;2023-11-18T05:05:29;1.50;99.90
6443;DHT22;3254;47.372;8.512;2023-11-18T05:07:54;1.50;99.90
6443;DHT22;3254;47.372;8.512;2023-11-18T05:10:20;1.40;99.90
6443;DHT22;3254;47.372;8.512;2023-11-18T05:12:45;1.40;99.90
6443;DHT22;3254;47.372;8.512;2023-11-18T05:15:18;1.40;99.90
6443;DHT22;3254;47.372;8.512;2023-11-18T05:17:44;1.50;99.90
6443;DHT22;3254;47.372;8.512;2023-11-18T05:20:09;1.50;99.90
6443;DHT22;3254;47.372;8.512;2023-11-18T05:22:36;1.40;99.90
6443;DHT22;3254;47.372;8.512;2023-11-18T05:25:03;1.40;99.90
6443;DHT22;3254;47.372;8.512;2023-11-18T05:27:30;1.30;99.90
6443;DHT22;3254;47.372;8.512;2023-11-18T05:29:57;1.40;99.90
6443;DHT22;3254;47.372;8.512;2023-11-18T05:32:29;1.40;99.90
6443;DHT22;3254;47.372;8.512;2023-11-18T05:34:55;1.60;99.90
6443;DHT22;3254;47.372;8.512;2023-11-18T05:37:23;1.70;99.90
6443;DHT22;3254;47.372;8.512;2023-11-18T05:39:49;1.60;99.90
6443;DHT22;3254;47.372;8.512;2023-11-18T05:42:19;1.60;99.90
6443;DHT22;3254;47.372;8.512;2023-11-18T05:44:45;1.50;99.90
6443;DHT22;3254;47.372;8.512;2023-11-18T05:47:10;1.40;99.90
6443;DHT22;3254;47.372;8.512;2023-11-18T05:49:37;1.30;99.90
6443;DHT22;3254;47.372;8.512;2023-11-18T05:52:06;1.30;99.90
6443;DHT22;3254;47.372;8.512;2023-11-18T05:54:32;1.30;99.90
6443;DHT22;3254;47.372;8.512;2023-11-18T05:56:59;1.30;99.90
6443;DHT22;3254;47.372;8.512;2023-11-18T05:59:27;1.30;99.90
6443;DHT22;3254;47.372;8.512;2023-11-18T06:01:53;1.30;99.90
6443;DHT22;3254;47.372;8.512;2023-11-18T06:04:18;1.30;99.90
6443;DHT22;3254;47.372;8.512;2023-11-18T06:06:44;1.30;99.90
6443;DHT22;3254;47.372;8.512;2023-11-18T06:09:09;1.30;99.90
6443;DHT22;3254;47.372;8.512;2023-11-18T06:11:43;1.50;99.90
6443;DHT22;3254;47.372;8.512;2023-11-18T06:14:10;1.50;99.90
6443;DHT22;3254;47.372;8.512;2023-11-18T06:16:35;1.60;99.90
6443;DHT22;3254;47.372;8.512;2023-11-18T06:19:01;1.60;99.90
6443;DHT22;3254;47.372;8.512;2023-11-18T06:21:30;1.60;99.90
6443;DHT22;3254;47.372;8.512;2023-11-18T06:24:00;1.50;99.90
6443;DHT22;3254;47.372;8.512;2023-11-18T06:26:27;1.50;99.90
6443;DHT22;3254;47.372;8.512;2023-11-18T06:28:53;1.50;99.90
6443;DHT22;3254;47.372;8.512;2023-11-18T06:31:20;1.50;99.90
6443;DHT22;3254;47.372;8.512;2023-11-18T06:33:47;1.60;99.90
6443;DHT22;3254;47.372;8.512;2023-11-18T06:38:51;1.40;99.90
6443;DHT22;3254;47.372;8.512;2023-11-18T06:41:21;1.30;99.90
6443;DHT22;3254;47.372;8.512;2023-11-18T06:43:49;1.30;99.90
6443;DHT22;3254;47.372;8.512;2023-11-18T06:46:15;1.30;99.90
6443;DHT22;3254;47.372;8.512;2023-11-18T06:48:40;1.40;99.90
6443;DHT22;3254;47.372;8.512;2023-11-18T06:51:06;1.40;99.90
6443;DHT22;3254;47.372;8.512;2023-11-18T06:53:33;1.40;99.90
6443;DHT22;3254;47.372;8.512;2023-11-18T06:56:00;1.40;99.90
6443;DHT22;3254;47.372;8.512;2023-11-18T06:58:25;1.40;99.90
6443;DHT22;3254;47.372;8.512;2023-11-18T07:00:51;1.50;99.90
6443;DHT22;3254;47.372;8.512;2023-11-18T07:03:16;1.40;99.90
6443;DHT22;3254;47.372;8.512;2023-11-18T07:05:42;1.50;99.90
6443;DHT22;3254;47.372;8.512;2023-11-18T07:08:09;1.60;99.90
6443;DHT22;3254;47.372;8.512;2023-11-18T07:10:35;1.70;99.90
6443;DHT22;3254;47.372;8.512;2023-11-18T07:13:03;1.70;99.90
6443;DHT22;3254;47.372;8.512;2023-11-18T07:15:29;1.90;99.90
6443;DHT22;3254;47.372;8.512;2023-11-18T07:17:54;2.10;99.90
6443;DHT22;3254;47.372;8.512;2023-11-18T07:20:20;2.20;99.90
6443;DHT22;3254;47.372;8.512;2023-11-18T07:22:45;2.30;99.90
6443;DHT22;3254;47.372;8.512;2023-11-18T07:25:11;2.40;99.90
6443;DHT22;3254;47.372;8.512;2023-11-18T07:27:37;2.40;99.90
6443;DHT22;3254;47.372;8.512;2023-11-18T07:30:03;2.50;99.90
6443;DHT22;3254;47.372;8.512;2023-11-18T07:32:31;2.50;99.90
6443;DHT22;3254;47.372;8.512;2023-11-18T07:34:58;2.50;99.90
6443;DHT22;3254;47.372;8.512;2023-11-18T07:37:23;2.50;99.90
6443;DHT22;3254;47.372;8.512;2023-11-18T07:39:49;2.60;99.90
6443;DHT22;3254;47.372;8.512;2023-11-18T07:42:14;2.70;99.90
6443;DHT22;3254;47.372;8.512;2023-11-18T07:44:40;2.80;99.90
6443;DHT22;3254;47.372;8.512;2023-11-18T07:47:06;2.90;99.90
6443;DHT22;3254;47.372;8.512;2023-11-18T07:49:35;3.00;99.90
6443;DHT22;3254;47.372;8.512;2023-11-18T07:52:02;3.10;99.90
6443;DHT22;3254;47.372;8.512;2023-11-18T07:54:28;3.20;99.90
6443;DHT22;3254;47.372;8.512;2023-11-18T07:56:53;3.40;99.90
6443;DHT22;3254;47.372;8.512;2023-11-18T07:59:20;3.50;99.90
6443;DHT22;3254;47.372;8.512;2023-11-18T08:01:46;3.60;99.90
6443;DHT22;3254;47.372;8.512;2023-11-18T08:04:15;3.60;99.90
6443;DHT22;3254;47.372;8.512;2023-11-18T08:06:41;3.80;99.90
6443;DHT22;3254;47.372;8.512;2023-11-18T08:09:08;4.00;99.90
6443;DHT22;3254;47.372;8.512;2023-11-18T08:11:37;4.20;99.90
6443;DHT22;3254;47.372;8.512;2023-11-18T08:14:04;4.40;99.90
6443;DHT22;3254;47.372;8.512;2023-11-18T08:16:30;4.50;99.90
6443;DHT22;3254;47.372;8.512;2023-11-18T08:18:57;4.50;99.90
6443;DHT22;3254;47.372;8.512;2023-11-18T08:21:23;4.50;99.90
6443;DHT22;3254;47.372;8.512;2023-11-18T08:23:49;4.50;98.90
6443;DHT22;3254;47.372;8.512;2023-11-18T08:26:14;4.60;97.50
6443;DHT22;3254;47.372;8.512;2023-11-18T08:28:40;4.60;98.30
6443;DHT22;3254;47.372;8.512;2023-11-18T08:31:06;4.80;98.90
6443;DHT22;3254;47.372;8.512;2023-11-18T08:33:32;5.10;97.20
6443;DHT22;3254;47.372;8.512;2023-11-18T08:35:59;5.30;98.40
6443;DHT22;3254;47.372;8.512;2023-11-18T08:38:27;5.50;92.80
6443;DHT22;3254;47.372;8.512;2023-11-18T08:40:53;5.70;84.70
6443;DHT22;3254;47.372;8.512;2023-11-18T08:43:20;5.90;76.20
6443;DHT22;3254;47.372;8.512;2023-11-18T08:45:46;6.10;71.10
6443;DHT22;3254;47.372;8.512;2023-11-18T08:48:12;6.20;64.00
6443;DHT22;3254;47.372;8.512;2023-11-18T08:50:39;6.10;55.30
6443;DHT22;3254;47.372;8.512;2023-11-18T08:53:08;6.10;54.30
6443;DHT22;3254;47.372;8.512;2023-11-18T08:55:35;6.20;41.80
6443;DHT22;3254;47.372;8.512;2023-11-18T08:58:11;6.60;44.00
6443;DHT22;3254;47.372;8.512;2023-11-18T09:01:09;7.00;35.90
6443;DHT22;3254;47.372;8.512;2023-11-18T09:03:41;7.30;20.70
6443;DHT22;3254;47.372;8.512;2023-11-18T09:06:14;7.60;13.70
6443;DHT22;3254;47.372;8.512;2023-11-18T09:08:43;7.70;10.50
6443;DHT22;3254;47.372;8.512;2023-11-18T09:11:11;7.70;5.60
6443;DHT22;3254;47.372;8.512;2023-11-18T09:13:41;7.40;1.00
6443;DHT22;3254;47.372;8.512;2023-11-18T09:16:08;7.30;5.70
6443;DHT22;3254;47.372;8.512;2023-11-18T09:18:35;7.20;7.10
6443;DHT22;3254;47.372;8.512;2023-11-18T09:21:01;7.20;7.50
6443;DHT22;3254;47.372;8.512;2023-11-18T09:23:30;7.30;6.70
6443;DHT22;3254;47.372;8.512;2023-11-18T09:25:57;7.50;6.00
6443;DHT22;3254;47.372;8.512;2023-11-18T09:28:26;7.80;1.00
6443;DHT22;3254;47.372;8.512;2023-11-18T09:30:56;7.80;1.00
6443;DHT22;3254;47.372;8.512;2023-11-18T09:33:26;8.00;1.00
6443;DHT22;3254;47.372;8.512;2023-11-18T09:36:08;8.00;1.00
6443;DHT22;3254;47.372;8.512;2023-11-18T09:38:36;8.10;1.00
6443;DHT22;3254;47.372;8.512;2023-11-18T09:41:04;8.10;1.00
6443;DHT22;3254;47.372;8.512;2023-11-18T09:43:42;8.50;1.00
6443;DHT22;3254;47.372;8.512;2023-11-18T09:46:11;9.00;1.00
6443;DHT22;3254;47.372;8.512;2023-11-18T09:48:45;9.40;1.00
6443;DHT22;3254;47.372;8.512;2023-11-18T09:51:26;9.90;1.00
6443;DHT22;3254;47.372;8.512;2023-11-18T09:54:09;10.20;1.00
6443;DHT22;3254;47.372;8.512;2023-11-18T09:56:51;10.20;1.00
6443;DHT22;3254;47.372;8.512;2023-11-18T09:59:32;10.10;1.00
6443;DHT22;3254;47.372;8.512;2023-11-18T10:02:03;10.00;1.00
6443;DHT22;3254;47.372;8.512;2023-11-18T10:04:30;9.80;1.00
6443;DHT22;3254;47.372;8.512;2023-11-18T10:06:57;9.80;1.00
6443;DHT22;3254;47.372;8.512;2023-11-18T10:09:26;10.00;1.00
6443;DHT22;3254;47.372;8.512;2023-11-18T10:12:08;10.10;1.00
6443;DHT22;3254;47.372;8.512;2023-11-18T10:14:35;10.10;1.00
6443;DHT22;3254;47.372;8.512;2023-11-18T10:17:07;10.00;1.00
6443;DHT22;3254;47.372;8.512;2023-11-18T10:22:28;9.80;1.00
6443;DHT22;3254;47.372;8.512;2023-11-18T10:24:55;9.70;1.00
6443;DHT22;3254;47.372;8.512;2023-11-18T10:27:24;9.60;1.00
6443;DHT22;3254;47.372;8.512;2023-11-18T10:29:55;9.70;1.00
6443;DHT22;3254;47.372;8.512;2023-11-18T10:32:21;9.80;1.00
6443;DHT22;3254;47.372;8.512;2023-11-18T10:34:50;9.80;1.00
6443;DHT22;3254;47.372;8.512;2023-11-18T10:37:16;10.00;1.00
6443;DHT22;3254;47.372;8.512;2023-11-18T10:39:46;10.20;1.00
6443;DHT22;3254;47.372;8.512;2023-11-18T10:42:12;10.30;1.00
6443;DHT22;3254;47.372;8.512;2023-11-18T10:44:40;10.40;1.00
6443;DHT22;3254;47.372;8.512;2023-11-18T10:47:19;10.50;1.00
6443;DHT22;3254;47.372;8.512;2023-11-18T10:49:46;10.40;1.00
6443;DHT22;3254;47.372;8.512;2023-11-18T10:52:11;10.50;1.00
6443;DHT22;3254;47.372;8.512;2023-11-18T10:54:50;10.60;1.00
6443;DHT22;3254;47.372;8.512;2023-11-18T10:57:20;10.60;1.00
6443;DHT22;3254;47.372;8.512;2023-11-18T10:59:59;10.50;1.00
6443;DHT22;3254;47.372;8.512;2023-11-18T11:02:24;10.40;1.00
6443;DHT22;3254;47.372;8.512;2023-11-18T11:04:50;10.10;1.00
6443;DHT22;3254;47.372;8.512;2023-11-18T11:07:17;10.20;1.00
6443;DHT22;3254;47.372;8.512;2023-11-18T11:09:44;10.30;1.00
6443;DHT22;3254;47.372;8.512;2023-11-18T11:12:12;10.40;1.00
6443;DHT22;3254;47.372;8.512;2023-11-18T11:14:59;10.30;1.00
6443;DHT22;3254;47.372;8.512;2023-11-18T11:17:27;10.10;1.00
6443;DHT22;3254;47.372;8.512;2023-11-18T11:20:07;10.00;1.00
6443;DHT22;3254;47.372;8.512;2023-11-18T11:23:18;10.00;1.00
6443;DHT22;3254;47.372;8.512;2023-11-18T11:26:13;10.00;1.00
6443;DHT22;3254;47.372;8.512;2023-11-18T11:28:57;10.00;1.00
6443;DHT22;3254;47.372;8.512;2023-11-18T11:31:31;9.90;1.00
6443;DHT22;3254;47.372;8.512;2023-11-18T11:34:02;9.80;1.00
6443;DHT22;3254;47.372;8.512;2023-11-18T11:36:34;9.80;1.00
6443;DHT22;3254;47.372;8.512;2023-11-18T11:39:02;9.80;1.00
6443;DHT22;3254;47.372;8.512;2023-11-18T11:41:29;9.70;1.00
6443;DHT22;3254;47.372;8.512;2023-11-18T11:43:59;9.80;1.00
6443;DHT22;3254;47.372;8.512;2023-11-18T11:46:27;9.70;1.00
6443;DHT22;3254;47.372;8.512;2023-11-18T11:49:04;9.60;1.00
6443;DHT22;3254;47.372;8.512;2023-11-18T11:51:46;9.70;1.00
6443;DHT22;3254;47.372;8.512;2023-11-18T11:54:20;9.70;1.00
6443;DHT22;3254;47.372;8.512;2023-11-18T11:56:48;9.80;1.00
6443;DHT22;3254;47.372;8.512;2023-11-18T12:02:20;9.90;1.00
6443;DHT22;3254;47.372;8.512;2023-11-18T12:04:50;9.80;1.00
6443;DHT22;3254;47.372;8.512;2023-11-18T12:07:20;9.70;1.00
6443;DHT22;3254;47.372;8.512;2023-11-18T12:09:49;9.60;1.00
6443;DHT22;3254;47.372;8.512;2023-11-18T12:12:21;9.60;1.00
6443;DHT22;3254;47.372;8.512;2023-11-18T12:14:51;9.60;1.00
6443;DHT22;3254;47.372;8.512;2023-11-18T12:17:26;9.60;1.00
6443;DHT22;3254;47.372;8.512;2023-11-18T12:19:57;9.50;1.00
6443;DHT22;3254;47.372;8.512;2023-11-18T12:23:04;9.40;1.00
6443;DHT22;3254;47.372;8.512;2023-11-18T12:25:40;9.30;1.00
6443;DHT22;3254;47.372;8.512;2023-11-18T12:28:16;9.10;1.00
6443;DHT22;3254;47.372;8.512;2023-11-18T12:30:43;9.00;1.00
6443;DHT22;3254;47.372;8.512;2023-11-18T12:33:20;9.10;1.00
6443;DHT22;3254;47.372;8.512;2023-11-18T12:41:01;9.30;1.00
6443;DHT22;3254;47.372;8.512;2023-11-18T12:43:49;9.40;1.00
6443;DHT22;3254;47.372;8.512;2023-11-18T12:46:51;9.30;1.00
6443;DHT22;3254;47.372;8.512;2023-11-18T12:49:24;9.30;1.00
6443;DHT22;3254;47.372;8.512;2023-11-18T12:51:52;9.30;1.00
6443;DHT22;3254;47.372;8.512;2023-11-18T12:54:22;9.20;1.00
6443;DHT22;3254;47.372;8.512;2023-11-18T12:56:50;9.00;1.00
6443;DHT22;3254;47.372;8.512;2023-11-18T12:59:19;8.90;1.00
6443;DHT22;3254;47.372;8.512;2023-11-18T13:01:52;8.70;1.00
6443;DHT22;3254;47.372;8.512;2023-11-18T13:04:27;8.50;1.00
6443;DHT22;3254;47.372;8.512;2023-11-18T13:06:53;8.30;1.00
6443;DHT22;3254;47.372;8.512;2023-11-18T13:09:21;8.20;1.00
6443;DHT22;3254;47.372;8.512;2023-11-18T13:11:54;8.30;1.00
6443;DHT22;3254;47.372;8.512;2023-11-18T13:14:27;8.30;1.00
6443;DHT22;3254;47.372;8.512;2023-11-18T13:16:53;8.40;1.00
6443;DHT22;3254;47.372;8.512;2023-11-18T13:19:29;8.50;1.00
6443;DHT22;3254;47.372;8.512;2023-11-18T13:21:58;8.40;1.00
6443;DHT22;3254;47.372;8.512;2023-11-18T13:24:25;8.50;1.00
6443;DHT22;3254;47.372;8.512;2023-11-18T13:26:55;8.60;1.00
6443;DHT22;3254;47.372;8.512;2023-11-18T13:29:22;8.60;1.00
6443;DHT22;3254;47.372;8.512;2023-11-18T13:31:52;8.60;1.00
6443;DHT22;3254;47.372;8.512;2023-11-18T13:34:19;8.60;1.00
6443;DHT22;3254;47.372;8.512;2023-11-18T13:36:49;8.60;1.00
6443;DHT22;3254;47.372;8.512;2023-11-18T13:39:21;8.50;1.00
6443;DHT22;3254;47.372;8.512;2023-11-18T13:41:49;8.40;1.00
6443;DHT22;3254;47.372;8.512;2023-11-18T13:44:34;8.40;1.00
6443;DHT22;3254;47.372;8.512;2023-11-18T13:47:21;8.30;1.00
6443;DHT22;3254;47.372;8.512;2023-11-18T13:49:53;8.20;1.00
6443;DHT22;3254;47.372;8.512;2023-11-18T13:52:19;8.10;1.00
6443;DHT22;3254;47.372;8.512;2023-11-18T13:54:44;7.90;1.00
6443;DHT22;3254;47.372;8.512;2023-11-18T13:57:12;7.80;1.00
6443;DHT22;3254;47.372;8.512;2023-11-18T13:59:38;7.70;1.00
6443;DHT22;3254;47.372;8.512;2023-11-18T14:02:09;7.70;1.00
6443;DHT22;3254;47.372;8.512;2023-11-18T14:04:35;7.70;1.00
6443;DHT22;3254;47.372;8.512;2023-11-18T14:07:02;7.60;1.00
6443;DHT22;3254;47.372;8.512;2023-11-18T14:09:34;7.60;1.00
6443;DHT22;3254;47.372;8.512;2023-11-18T14:12:08;7.50;1.00
6443;DHT22;3254;47.372;8.512;2023-11-18T14:14:34;7.40;1.00
6443;DHT22;3254;47.372;8.512;2023-11-18T14:17:00;7.40;1.00
6443;DHT22;3254;47.372;8.512;2023-11-18T14:19:26;7.40;1.00
6443;DHT22;3254;47.372;8.512;2023-11-18T14:21:53;7.50;1.00
6443;DHT22;3254;47.372;8.512;2023-11-18T14:24:19;7.50;1.00
6443;DHT22;3254;47.372;8.512;2023-11-18T14:26:45;7.40;1.00
6443;DHT22;3254;47.372;8.512;2023-11-18T14:29:10;7.40;1.00
6443;DHT22;3254;47.372;8.512;2023-11-18T14:31:37;7.40;1.00
6443;DHT22;3254;47.372;8.512;2023-11-18T14:34:03;7.30;1.00
6443;DHT22;3254;47.372;8.512;2023-11-18T14:36:29;7.30;1.00
6443;DHT22;3254;47.372;8.512;2023-11-18T14:38:55;7.30;1.00
6443;DHT22;3254;47.372;8.512;2023-11-18T14:41:21;7.30;1.00
6443;DHT22;3254;47.372;8.512;2023-11-18T14:43:51;7.30;1.00
6443;DHT22;3254;47.372;8.512;2023-11-18T14:46:17;7.30;1.00
6443;DHT22;3254;47.372;8.512;2023-11-18T14:48:44;7.40;1.00
6443;DHT22;3254;47.372;8.512;2023-11-18T14:51:09;7.40;1.00
6443;DHT22;3254;47.372;8.512;2023-11-18T14:53:36;7.40;1.00
6443;DHT22;3254;47.372;8.512;2023-11-18T14:56:03;7.40;1.00
6443;DHT22;3254;47.372;8.512;2023-11-18T14:58:31;7.40;1.00
6443;DHT22;3254;47.372;8.512;2023-11-18T15:00:58;7.40;1.00
6443;DHT22;3254;47.372;8.512;2023-11-18T15:03:24;7.50;1.00
6443;DHT22;3254;47.372;8.512;2023-11-18T15:05:50;7.50;1.00
6443;DHT22;3254;47.372;8.512;2023-11-18T15:08:16;7.50;1.00
6443;DHT22;3254;47.372;8.512;2023-11-18T15:10:42;7.50;1.00
6443;DHT22;3254;47.372;8.512;2023-11-18T15:13:07;7.50;1.00
6443;DHT22;3254;47.372;8.512;2023-11-18T15:15:38;7.50;1.00
6443;DHT22;3254;47.372;8.512;2023-11-18T15:18:04;7.50;1.00
6443;DHT22;3254;47.372;8.512;2023-11-18T15:20:46;7.50;1.00
6443;DHT22;3254;47.372;8.512;2023-11-18T15:23:13;7.50;1.00
6443;DHT22;3254;47.372;8.512;2023-11-18T15:25:39;7.50;1.00
6443;DHT22;3254;47.372;8.512;2023-11-18T15:28:06;7.50;1.00
6443;DHT22;3254;47.372;8.512;2023-11-18T15:30:39;7.40;1.00
6443;DHT22;3254;47.372;8.512;2023-11-18T15:33:05;7.50;1.00
6443;DHT22;3254;47.372;8.512;2023-11-18T15:35:35;7.50;1.00
6443;DHT22;3254;47.372;8.512;2023-11-18T15:38:04;7.40;1.00
6443;DHT22;3254;47.372;8.512;2023-11-18T15:40:34;7.40;1.00
6443;DHT22;3254;47.372;8.512;2023-11-18T15:43:05;7.40;1.00
6443;DHT22;3254;47.372;8.512;2023-11-18T15:45:37;7.40;1.00
6443;DHT22;3254;47.372;8.512;2023-11-18T15:48:03;7.40;1.00
6443;DHT22;3254;47.372;8.512;2023-11-18T15:50:35;7.40;1.00
6443;DHT22;3254;47.372;8.512;2023-11-18T15:53:03;7.30;1.00
6443;DHT22;3254;47.372;8.512;2023-11-18T15:55:29;7.30;1.00
6443;DHT22;3254;47.372;8.512;2023-11-18T15:57:54;7.30;1.00
6443;DHT22;3254;47.372;8.512;2023-11-18T16:00:22;7.30;1.00
6443;DHT22;3254;47.372;8.512;2023-11-18T16:02:51;7.30;1.00
6443;DHT22;3254;47.372;8.512;2023-11-18T16:05:19;7.30;1.00
6443;DHT22;3254;47.372;8.512;2023-11-18T16:07:47;7.20;1.00
6443;DHT22;3254;47.372;8.512;2023-11-18T16:10:14;7.30;1.00
6443;DHT22;3254;47.372;8.512;2023-11-18T16:12:50;7.30;1.00
6443;DHT22;3254;47.372;8.512;2023-11-18T16:15:24;7.30;1.00
6443;DHT22;3254;47.372;8.512;2023-11-18T16:17:50;7.20;1.00
6443;DHT22;3254;47.372;8.512;2023-11-18T16:20:17;7.30;1.00
6443;DHT22;3254;47.372;8.512;2023-11-18T16:22:44;7.30;1.00
6443;DHT22;3254;47.372;8.512;2023-11-18T16:25:15;7.30;1.00
6443;DHT22;3254;47.372;8.512;2023-11-18T16:27:52;7.30;1.00
6443;DHT22;3254;47.372;8.512;2023-11-18T16:30:19;7.30;1.00
6443;DHT22;3254;47.372;8.512;2023-11-18T16:32:50;7.40;1.00
6443;DHT22;3254;47.372;8.512;2023-11-18T16:35:16;7.40;1.00
6443;DHT22;3254;47.372;8.512;2023-11-18T16:37:43;7.40;1.00
6443;DHT22;3254;47.372;8.512;2023-11-18T16:40:10;7.30;1.00
6443;DHT22;3254;47.372;8.512;2023-11-18T16:42:48;7.30;1.00
6443;DHT22;3254;47.372;8.512;2023-11-18T16:45:15;7.30;1.00
6443;DHT22;3254;47.372;8.512;2023-11-18T16:47:41;7.30;1.00